Time;durP1;ratioP1;P1;durP2;ratioP2;P2;SDS_P1;SDS_P2;PMS_P1;PMS_P2;Temp;Humidity;BMP_temperature;BMP_pressure;BME280_temperature;BME280_humidity;BME280_pressure;Samples;Min_cycle;Max_cycle;Signal;HPM_P1;HPM_P2
2022/05/31 00:01:51;;;;;;;;;8.33;8.00;;;;;17.23;38.42;100940.31;5061042;28;45906;-52
2022/05/31 00:04:16;;;;;;;;;18.67;16.67;;;;;17.17;38.16;100943.47;5062317;28;45505;-55
2022/05/31 00:06:42;;;;;;;;;30.33;23.00;;;;;17.08;38.17;100947.72;5062407;28;45726;-54
2022/05/31 00:09:08;;;;;;;;;22.33;17.00;;;;;17.03;38.43;100944.50;5059844;28;47022;-56
2022/05/31 00:11:35;;;;;;;;;20.00;15.67;;;;;16.97;38.43;100939.59;5061597;28;47055;-55
2022/05/31 00:14:01;;;;;;;;;24.67;16.33;;;;;16.94;38.43;100940.69;5061666;28;45509;-55
2022/05/31 00:16:27;;;;;;;;;21.67;16.00;;;;;16.93;38.08;100933.59;5061136;28;45489;-55
2022/05/31 00:18:52;;;;;;;;;15.67;14.00;;;;;16.93;38.42;100935.44;5061095;28;45708;-56
2022/05/31 00:21:17;;;;;;;;;15.33;13.00;;;;;16.94;38.22;100932.63;5062778;28;48770;-56
2022/05/31 00:23:43;;;;;;;;;18.33;17.67;;;;;16.95;38.50;100925.44;5060165;28;45466;-56
2022/05/31 00:26:09;;;;;;;;;16.67;12.33;;;;;16.96;38.53;100927.13;5061485;28;45474;-56
2022/05/31 00:28:34;;;;;;;;;15.00;14.00;;;;;16.94;38.64;100929.94;5064854;28;45427;-54
2022/05/31 00:31:00;;;;;;;;;11.67;10.67;;;;;16.94;38.55;100926.41;5062247;28;49572;-54
2022/05/31 00:33:26;;;;;;;;;12.00;10.00;;;;;16.94;38.76;100931.78;5064984;28;47286;-54
2022/05/31 00:35:53;;;;;;;;;8.67;8.67;;;;;16.95;38.55;100930.81;5063398;28;45453;-55
2022/05/31 00:38:19;;;;;;;;;7.67;6.67;;;;;16.95;38.78;100928.97;5064527;28;45679;-55
2022/05/31 00:40:45;;;;;;;;;5.67;5.33;;;;;16.98;39.11;100935.94;5048382;28;46234;-55
2022/05/31 00:43:14;;;;;;;;;6.33;6.33;;;;;16.98;38.72;100933.25;5046445;28;45407;-55
2022/05/31 00:45:41;;;;;;;;;6.33;5.00;;;;;16.97;38.70;100928.84;5060585;28;46847;-54
2022/05/31 00:48:24;;;;;;;;;5.00;5.00;;;;;16.95;38.25;100930.81;5046418;28;45705;-56
2022/05/31 00:50:56;;;;;;;;;6.67;6.67;;;;;16.90;38.99;100931.13;5063609;28;46837;-54
2022/05/31 00:53:35;;;;;;;;;6.67;4.00;;;;;16.88;38.91;100924.97;5048312;28;45457;-55
2022/05/31 00:56:05;;;;;;;;;6.33;4.33;;;;;16.86;38.66;100933.16;5063590;28;45423;-54
2022/05/31 00:58:33;;;;;;;;;5.67;4.67;;;;;16.84;38.54;100932.44;5045017;28;45415;-55
2022/05/31 01:01:04;;;;;;;;;6.00;4.67;;;;;16.85;38.53;100926.06;5046115;28;46146;-55
2022/05/31 01:03:30;;;;;;;;;5.00;4.33;;;;;16.85;38.99;100927.91;5058818;28;45492;-56
2022/05/31 01:05:56;;;;;;;;;5.67;4.33;;;;;16.87;38.90;100926.81;5061481;28;45530;-57
2022/05/31 01:08:22;;;;;;;;;6.33;3.00;;;;;16.84;38.91;100924.38;5069371;28;45558;-56
2022/05/31 01:10:48;;;;;;;;;5.67;4.00;;;;;16.82;38.71;100931.69;5066977;28;46236;-56
2022/05/31 01:13:17;;;;;;;;;5.33;4.00;;;;;16.80;39.17;100930.06;5062083;28;58197;-55
2022/05/31 01:15:44;;;;;;;;;4.00;4.00;;;;;16.79;39.07;100931.03;5063003;28;45286;-55
2022/05/31 01:18:11;;;;;;;;;3.00;3.00;;;;;16.79;39.10;100922.97;5063412;28;45505;-56
2022/05/31 01:20:36;;;;;;;;;5.67;4.00;;;;;16.79;39.11;100925.66;5067527;28;45869;-56
2022/05/31 01:23:14;;;;;;;;;3.00;3.00;;;;;16.76;39.14;100932.13;5064342;28;61476;-56
2022/05/31 01:26:03;;;;;;;;;4.00;2.00;;;;;16.76;38.94;100923.22;5064420;28;45482;-55
2022/05/31 01:28:42;;;;;;;;;4.00;2.33;;;;;16.74;39.03;100926.03;5051992;28;45594;-54
2022/05/31 01:31:37;;;;;;;;;6.00;4.00;;;;;16.71;38.99;100926.22;5060744;28;46164;-56
2022/05/31 01:34:05;;;;;;;;;3.00;1.00;;;;;16.71;39.19;100926.22;5064915;28;45356;-56
2022/05/31 01:36:36;;;;;;;;;3.00;3.00;;;;;16.70;38.71;100922.69;5064737;28;45451;-55
2022/05/31 01:39:13;;;;;;;;;3.00;3.00;;;;;16.68;39.28;100918.41;5065485;28;45406;-56
2022/05/31 01:41:49;;;;;;;;;3.00;3.00;;;;;16.66;39.24;100923.91;5034702;28;46130;-56
2022/05/31 01:44:17;;;;;;;;;6.33;3.00;;;;;16.65;39.01;100926.72;5031969;28;45492;-56
2022/05/31 01:46:43;;;;;;;;;4.33;3.00;;;;;16.64;39.19;100925.84;5068141;28;45305;-55
2022/05/31 01:49:10;;;;;;;;;5.67;4.00;;;;;16.63;39.09;100921.44;5050582;28;45356;-56
2022/05/31 01:51:39;;;;;;;;;2.00;2.00;;;;;16.64;39.20;100927.66;5049517;28;46168;-56
2022/05/31 01:54:05;;;;;;;;;3.00;3.00;;;;;16.65;38.96;100927.56;5047156;28;45415;-57
2022/05/31 01:56:30;;;;;;;;;2.33;2.33;;;;;16.64;39.28;100923.16;5073734;28;45521;-57
2022/05/31 01:58:57;;;;;;;;;2.33;2.00;;;;;16.66;39.47;100925.72;5066930;28;45379;-56
2022/05/31 02:01:23;;;;;;;;;4.33;3.00;;;;;16.67;39.37;100924.75;5060856;28;68135;-55
2022/05/31 02:03:48;;;;;;;;;5.67;4.00;;;;;16.65;39.45;100922.19;5061163;28;45475;-55
2022/05/31 02:06:37;;;;;;;;;5.00;3.00;;;;;16.66;39.12;100921.22;5057550;28;61202;-57
2022/05/31 02:09:04;;;;;;;;;2.67;2.67;;;;;16.66;39.23;100917.66;5080513;28;45448;-55
2022/05/31 02:11:29;;;;;;;;;3.00;3.00;;;;;16.65;39.63;100919.50;5058386;28;46176;-55
2022/05/31 02:13:56;;;;;;;;;5.00;3.00;;;;;16.66;39.16;100915.84;5065666;28;57430;-55
2022/05/31 02:16:22;;;;;;;;;0.67;0.67;;;;;16.66;39.73;100925.72;5064151;28;45537;-57
2022/05/31 02:21:37;;;;;;;;;4.00;4.00;;;;;16.66;39.35;100923.91;5063853;28;45675;-55
2022/05/31 02:24:09;;;;;;;;;5.00;4.00;;;;;16.65;39.28;100930.25;5067932;28;46700;-56
2022/05/31 02:26:34;;;;;;;;;3.00;3.00;;;;;16.63;39.98;100921.44;5061191;28;45464;-56
2022/05/31 02:29:00;;;;;;;;;3.33;2.67;;;;;16.65;39.53;100924.03;5060548;28;45445;-56
2022/05/31 02:31:26;;;;;;;;;3.67;3.67;;;;;16.64;40.21;100928.53;5070156;28;46976;-56
2022/05/31 02:33:52;;;;;;;;;4.00;3.00;;;;;16.65;39.62;100926.72;5058190;28;45301;-56
2022/05/31 02:36:18;;;;;;;;;2.33;2.33;;;;;16.64;39.99;100930.34;5063971;28;45554;-57
2022/05/31 02:38:43;;;;;;;;;4.00;3.00;;;;;16.63;39.42;100925.94;5059209;28;45521;-55
2022/05/31 02:41:08;;;;;;;;;4.33;4.33;;;;;16.61;39.69;100927.88;5060074;28;68036;-57
2022/05/31 02:43:34;;;;;;;;;3.67;3.67;;;;;16.58;39.85;100923.59;5055408;28;64012;-55
2022/05/31 02:46:00;;;;;;;;;4.00;3.00;;;;;16.55;39.55;100921.13;5066918;28;62717;-55
2022/05/31 02:48:25;;;;;;;;;6.00;4.33;;;;;16.54;39.80;100920.31;5061104;28;45486;-54
2022/05/31 02:50:50;;;;;;;;;6.33;4.67;;;;;16.50;39.57;100916.13;5058899;28;45427;-56
2022/05/31 02:53:16;;;;;;;;;6.67;5.67;;;;;16.49;39.70;100914.41;5055613;28;65318;-55
2022/05/31 02:55:42;;;;;;;;;4.00;4.00;;;;;16.51;39.81;100915.13;5060547;28;45335;-55
2022/05/31 02:58:07;;;;;;;;;5.00;5.00;;;;;16.52;39.41;100924.91;5061053;28;45569;-55
2022/05/31 03:00:33;;;;;;;;;4.67;4.67;;;;;16.53;39.58;100917.69;5058634;28;46088;-54
2022/05/31 03:02:58;;;;;;;;;7.67;6.00;;;;;16.53;39.62;100925.75;5056005;28;63345;-54
2022/05/31 03:05:23;;;;;;;;;5.00;4.00;;;;;16.52;39.43;100929.44;5059039;28;45466;-56
2022/05/31 03:07:49;;;;;;;;;5.33;5.00;;;;;16.51;39.94;100931.25;5058537;28;61426;-56
2022/05/31 03:10:14;;;;;;;;;7.67;6.33;;;;;16.52;39.87;100934.81;5057338;28;63529;-55
2022/05/31 03:12:39;;;;;;;;;4.67;4.67;;;;;16.49;39.92;100929.63;5055523;28;60819;-55
2022/05/31 03:15:11;;;;;;;;;4.67;4.67;;;;;16.48;40.00;100925.25;5059388;28;59438;-56
2022/05/31 03:18:03;;;;;;;;;5.67;5.00;;;;;16.49;40.08;100927.81;5057306;28;45952;-55
2022/05/31 03:20:33;;;;;;;;;4.00;4.00;;;;;16.49;39.68;100921.59;5051252;28;46831;-55
2022/05/31 03:23:04;;;;;;;;;4.00;4.00;;;;;16.48;39.72;100915.38;5043463;28;45663;-55
2022/05/31 03:25:30;;;;;;;;;4.00;4.00;;;;;16.49;39.94;100921.59;5059396;28;45276;-56
2022/05/31 03:27:59;;;;;;;;;5.00;4.00;;;;;16.49;39.98;100911.72;5040144;28;58971;-57
2022/05/31 03:30:25;;;;;;;;;3.00;3.00;;;;;16.46;39.77;100913.78;5057879;28;46214;-56
2022/05/31 03:32:52;;;;;;;;;4.00;4.00;;;;;16.41;40.07;100924.81;5059556;28;64536;-56
2022/05/31 03:35:17;;;;;;;;;2.67;2.00;;;;;16.39;40.53;100918.72;5048543;28;45720;-56
2022/05/31 03:37:43;;;;;;;;;2.67;2.67;;;;;16.38;40.27;100919.69;5063252;28;45438;-56
2022/05/31 03:40:09;;;;;;;;;4.00;3.00;;;;;16.37;40.48;100924.22;5057335;28;46020;-56
2022/05/31 03:42:34;;;;;;;;;3.00;3.00;;;;;16.35;39.77;100920.78;5056139;28;45345;-55
2022/05/31 03:45:00;;;;;;;;;7.00;4.67;;;;;16.35;40.54;100920.78;5069873;28;45450;-56
2022/05/31 03:47:25;;;;;;;;;5.00;4.00;;;;;16.34;40.39;100921.72;5059125;28;61133;-56
2022/05/31 03:49:50;;;;;;;;;3.00;3.00;;;;;16.34;40.60;100920.88;5057342;28;64379;-56
2022/05/31 03:52:16;;;;;;;;;3.00;3.00;;;;;16.33;40.47;100922.69;5055889;28;63875;-54
2022/05/31 03:54:41;;;;;;;;;3.67;3.67;;;;;16.32;40.05;100926.38;5059906;28;45436;-56
2022/05/31 03:57:12;;;;;;;;;4.00;3.50;;;;;16.33;40.54;100925.38;5059867;28;45392;-56
2022/05/31 03:59:37;;;;;;;;;5.00;4.00;;;;;16.34;40.86;100923.56;5057731;28;46221;-57
2022/05/31 04:02:04;;;;;;;;;7.00;4.33;;;;;16.34;40.33;100923.56;5060326;28;45393;-56
2022/05/31 04:04:29;;;;;;;;;7.00;3.00;;;;;16.32;40.78;100920.13;5067032;28;45330;-56
2022/05/31 04:06:54;;;;;;;;;3.00;3.00;;;;;16.29;40.89;100921.22;5059889;28;45274;-56
2022/05/31 04:09:20;;;;;;;;;4.00;4.00;;;;;16.28;40.42;100924.88;5056274;28;66625;-55
2022/05/31 04:11:45;;;;;;;;;3.33;3.33;;;;;16.28;40.74;100921.31;5050612;28;63499;-56
2022/05/31 04:14:10;;;;;;;;;3.67;3.67;;;;;16.27;40.96;100917.78;5058348;28;59405;-55
2022/05/31 04:16:36;;;;;;;;;3.33;3.33;;;;;16.28;41.12;100926.69;5069127;28;61741;-57
2022/05/31 04:19:02;;;;;;;;;3.00;3.00;;;;;16.25;40.67;100919.72;5057490;28;46041;-56
2022/05/31 04:21:27;;;;;;;;;6.33;5.00;;;;;16.24;41.22;100920.69;5057675;28;45348;-55
2022/05/31 04:23:59;;;;;;;;;4.33;4.33;;;;;16.23;41.49;100921.66;5066722;28;45348;-56
2022/05/31 04:26:32;;;;;;;;;5.00;5.00;;;;;16.23;41.56;100918.13;5063542;28;45376;-56
2022/05/31 04:28:58;;;;;;;;;6.33;4.67;;;;;16.23;41.94;100915.44;5056848;28;46204;-56
2022/05/31 04:31:24;;;;;;;;;7.67;6.00;;;;;16.21;42.21;100919.06;5059026;28;45591;-54
2022/05/31 04:33:50;;;;;;;;;5.33;4.33;;;;;16.21;42.49;100926.28;5061212;28;45436;-56
2022/05/31 04:36:17;;;;;;;;;6.33;5.00;;;;;16.20;42.72;100921.88;5063037;28;45975;-56
2022/05/31 04:38:42;;;;;;;;;7.33;4.00;;;;;16.20;42.19;100922.75;5064018;28;46408;-55
2022/05/31 04:41:15;;;;;;;;;6.67;5.67;;;;;16.20;42.36;100919.19;5066031;28;45450;-55
2022/05/31 04:43:40;;;;;;;;;4.00;4.00;;;;;16.19;42.61;100920.16;5065939;28;45606;-55
2022/05/31 04:46:14;;;;;;;;;5.33;4.00;;;;;16.20;42.98;100922.75;5064787;28;58967;-56
2022/05/31 04:48:40;;;;;;;;;7.00;6.00;;;;;16.20;42.97;100924.56;5055205;28;46091;-55
2022/05/31 04:51:05;;;;;;;;;8.33;5.67;;;;;16.19;42.74;100920.16;5055237;28;45607;-56
2022/05/31 04:53:31;;;;;;;;;7.00;6.00;;;;;16.16;43.05;100915.88;5066611;28;45328;-57
2022/05/31 04:56:05;;;;;;;;;7.67;7.00;;;;;16.17;43.32;100922.09;5050285;28;45420;-56
2022/05/31 04:58:30;;;;;;;;;6.00;6.00;;;;;16.18;43.52;100927.34;5052179;28;46353;-55
2022/05/31 05:00:56;;;;;;;;;4.67;4.00;;;;;16.20;43.32;100924.56;5049931;28;45383;-57
2022/05/31 05:03:21;;;;;;;;;7.67;6.00;;;;;16.19;43.46;100926.41;5055509;28;45367;-56
2022/05/31 05:05:46;;;;;;;;;9.00;5.00;;;;;16.18;43.14;100932.72;5067255;28;45497;-56
2022/05/31 05:08:12;;;;;;;;;5.00;5.00;;;;;16.19;43.78;100938.94;5065521;28;45390;-56
2022/05/31 05:10:37;;;;;;;;;7.00;7.00;;;;;16.18;43.79;100938.09;5056689;28;55146;-57
2022/05/31 05:13:03;;;;;;;;;5.00;5.00;;;;;16.17;43.41;100944.41;5058053;28;45228;-56
2022/05/31 05:15:28;;;;;;;;;6.00;4.33;;;;;16.15;43.58;100942.81;5055294;28;45467;-55
2022/05/31 05:17:53;;;;;;;;;7.33;6.00;;;;;16.12;43.51;100943.88;5053962;28;65931;-57
2022/05/31 05:20:19;;;;;;;;;6.67;6.00;;;;;16.12;43.54;100938.53;5051624;28;58449;-57
2022/05/31 05:22:44;;;;;;;;;4.00;4.00;;;;;16.11;43.42;100941.31;5059819;28;45404;-57
2022/05/31 05:25:10;;;;;;;;;8.00;5.33;;;;;16.11;43.94;100933.28;5060892;28;45507;-57
2022/05/31 05:27:35;;;;;;;;;5.67;5.67;;;;;16.11;43.84;100941.31;5060885;28;46342;-57
2022/05/31 05:32:45;;;;;;;;;2.67;0.67;;;;;16.15;43.62;100946.38;5065142;28;45391;-56
2022/05/31 05:35:10;;;;;;;;;7.00;6.00;;;;;16.17;44.08;100943.56;5062201;28;62043;-57
2022/05/31 05:37:35;;;;;;;;;6.00;4.00;;;;;16.19;43.76;100949.66;5044964;28;68816;-58
2022/05/31 05:40:01;;;;;;;;;4.00;4.00;;;;;16.20;44.32;100952.28;5051400;28;45245;-57
2022/05/31 05:42:26;;;;;;;;;5.67;5.67;;;;;16.21;44.23;100947.75;5041465;28;46160;-54
2022/05/31 05:44:52;;;;;;;;;6.00;5.00;;;;;16.22;44.04;100946.78;5062687;28;64057;-56
2022/05/31 05:47:17;;;;;;;;;5.33;5.33;;;;;16.25;44.06;100948.41;5063127;28;45890;-55
2022/05/31 05:49:43;;;;;;;;;6.00;6.00;;;;;16.27;44.25;100958.06;5066643;28;45523;-56
2022/05/31 05:52:15;;;;;;;;;8.00;6.33;;;;;16.30;44.31;100965.03;5064423;28;45648;-56
2022/05/31 05:54:40;;;;;;;;;9.33;7.33;;;;;16.31;44.13;100964.03;5065014;28;45480;-55
2022/05/31 05:57:05;;;;;;;;;8.00;6.00;;;;;16.33;44.04;100964.78;5068724;28;67263;-56
2022/05/31 05:59:31;;;;;;;;;6.00;6.00;;;;;16.36;44.03;100969.94;5066867;28;64468;-56
2022/05/31 06:02:00;;;;;;;;;7.67;5.00;;;;;16.38;44.31;100965.31;5062102;28;60232;-58
2022/05/31 06:04:30;;;;;;;;;8.33;6.33;;;;;16.43;44.22;100976.59;5057999;28;45560;-57
2022/05/31 06:07:18;;;;;;;;;7.00;7.00;;;;;16.46;44.20;100973.66;5049469;28;46109;-58
2022/05/31 06:09:49;;;;;;;;;5.67;5.67;;;;;16.50;44.40;100971.63;5059499;28;45476;-56
2022/05/31 06:12:19;;;;;;;;;9.67;6.33;;;;;16.52;43.93;100967.88;5043567;28;45403;-57
2022/05/31 06:14:48;;;;;;;;;8.67;6.67;;;;;16.49;43.93;100964.53;5064687;28;45624;-57
2022/05/31 06:17:17;;;;;;;;;9.33;7.33;;;;;16.49;44.02;100978.84;5041253;28;46027;-56
2022/05/31 06:19:43;;;;;;;;;8.67;8.00;;;;;16.51;43.74;100967.97;5053866;28;45387;-55
2022/05/31 06:22:09;;;;;;;;;7.33;6.33;;;;;16.51;43.84;100974.19;5067010;28;48400;-57
2022/05/31 06:24:36;;;;;;;;;8.67;7.33;;;;;16.53;43.95;100974.97;5062928;28;45501;-57
2022/05/31 06:27:01;;;;;;;;;7.67;6.33;;;;;16.56;43.92;100981.94;5066740;28;47326;-57
2022/05/31 06:29:29;;;;;;;;;8.00;8.00;;;;;16.58;44.13;100985.34;5046775;28;46752;-56
2022/05/31 06:31:55;;;;;;;;;7.00;7.00;;;;;16.63;44.24;100988.56;5062358;28;45450;-56
2022/05/31 06:34:20;;;;;;;;;7.33;7.33;;;;;16.69;44.24;100984.59;5065022;28;45403;-57
2022/05/31 06:36:46;;;;;;;;;10.33;8.33;;;;;16.78;44.10;100985.72;5061964;28;62845;-57
2022/05/31 06:39:11;;;;;;;;;6.00;6.00;;;;;16.89;43.54;100984.94;5066938;28;63361;-55
2022/05/31 06:41:37;;;;;;;;;7.67;7.00;;;;;17.03;43.76;100987.50;5066927;28;59823;-56
2022/05/31 06:44:03;;;;;;;;;7.67;7.67;;;;;17.22;43.27;100989.66;5064608;28;57141;-52
2022/05/31 06:46:29;;;;;;;;;11.67;7.67;;;;;17.41;43.17;100991.81;5063911;28;46184;-54
2022/05/31 06:48:56;;;;;;;;;7.33;6.67;;;;;17.57;43.16;100987.97;5067410;28;45501;-55
2022/05/31 06:57:01;;;;;;;;;5.33;5.33;;;;;17.83;42.36;100980.56;5052512;28;45424;-56
2022/05/31 06:59:26;;;;;;;;;9.00;7.67;;;;;17.91;42.46;100983.50;5042664;28;45319;-55
2022/05/31 07:01:53;;;;;;;;;7.67;6.67;;;;;17.96;41.81;100986.72;5050253;28;64001;-56
2022/05/31 07:04:19;;;;;;;;;4.00;4.00;;;;;17.99;42.02;100981.13;5043457;28;45411;-54
2022/05/31 07:06:44;;;;;;;;;8.00;6.67;;;;;18.02;41.97;100982.72;5070528;28;46156;-56
2022/05/31 07:09:09;;;;;;;;;6.00;4.67;;;;;18.11;41.84;100986.53;5060026;28;45413;-56
2022/05/31 07:11:35;;;;;;;;;7.00;5.00;;;;;18.24;41.37;100979.19;5059892;28;45310;-55
2022/05/31 07:14:01;;;;;;;;;5.33;5.00;;;;;18.41;41.02;100985.91;5060144;28;45294;-55
2022/05/31 07:16:27;;;;;;;;;5.00;4.33;;;;;18.58;40.60;100978.31;5068102;28;47294;-55
2022/05/31 07:18:52;;;;;;;;;6.33;5.00;;;;;18.73;39.29;100979.72;5054118;28;45679;-54
2022/05/31 07:21:18;;;;;;;;;7.00;7.00;;;;;18.85;38.92;100988.63;5059942;28;45893;-56
2022/05/31 07:23:43;;;;;;;;;5.67;5.67;;;;;18.99;39.31;100988.41;5058371;28;60819;-55
2022/05/31 07:26:12;;;;;;;;;3.00;3.00;;;;;19.08;38.46;100983.25;5062841;28;45441;-55
2022/05/31 07:28:37;;;;;;;;;3.00;3.00;;;;;19.19;38.52;100988.59;5058421;28;45489;-56
2022/05/31 07:31:02;;;;;;;;;4.33;3.67;;;;;19.35;38.42;100990.84;5058805;28;59091;-55
2022/05/31 07:33:28;;;;;;;;;7.33;4.67;;;;;19.58;38.23;100990.72;5058394;28;61448;-55
2022/05/31 07:35:53;;;;;;;;;3.33;3.33;;;;;19.78;37.72;100983.66;5061909;28;66340;-55
2022/05/31 07:38:20;;;;;;;;;6.00;4.67;;;;;19.92;37.57;100985.16;5058713;28;63013;-55
2022/05/31 07:40:46;;;;;;;;;3.67;3.67;;;;;19.95;37.24;100983.06;5071166;28;45470;-55
2022/05/31 07:43:11;;;;;;;;;4.00;4.00;;;;;20.11;37.54;100981.72;5062913;28;45834;-55
2022/05/31 07:45:37;;;;;;;;;6.33;6.33;;;;;20.39;37.43;100979.28;5052457;28;46263;-56
2022/05/31 07:48:03;;;;;;;;;2.67;2.67;;;;;20.74;37.04;100981.56;5059293;28;45370;-54
2022/05/31 07:50:28;;;;;;;;;5.67;4.67;;;;;20.99;35.33;100982.88;5059311;28;45285;-55
2022/05/31 07:52:54;;;;;;;;;4.33;4.33;;;;;21.29;36.24;100982.91;5058256;28;62390;-55
2022/05/31 07:55:19;;;;;;;;;2.67;2.67;;;;;21.52;35.18;100980.75;5054327;28;46068;-56
2022/05/31 08:00:28;;;;;;;;;4.33;4.33;;;;;22.18;34.58;100984.47;5051446;28;45621;-55
2022/05/31 08:02:53;;;;;;;;;7.00;4.33;;;;;22.36;32.72;100990.00;5056919;28;52491;-55
2022/05/31 08:05:19;;;;;;;;;2.00;1.25;;;;;22.51;33.51;100986.78;5053105;28;46220;-55
2022/05/31 08:07:44;;;;;;;;;4.50;2.75;;;;;22.74;33.14;100984.53;5068446;28;45532;-56
2022/05/31 08:10:10;;;;;;;;;3.50;3.25;;;;;22.92;32.33;100979.97;5062885;28;49590;-54
2022/05/31 08:12:36;;;;;;;;;3.50;3.00;;;;;23.28;32.85;100977.31;5067844;28;45400;-56
2022/05/31 08:15:01;;;;;;;;;1.25;1.25;;;;;23.72;32.25;100978.34;5049291;28;46079;-56
2022/05/31 08:17:27;;;;;;;;;3.00;1.75;;;;;24.08;32.57;100981.84;5055605;28;61594;-56
2022/05/31 08:19:54;;;;;;;;;2.00;2.00;;;;;24.38;32.02;100982.31;5053616;28;45300;-56
2022/05/31 08:22:20;;;;;;;;;2.25;2.25;;;;;24.91;31.84;100974.91;5069483;28;45834;-56
2022/05/31 08:24:45;;;;;;;;;2.00;2.00;;;;;25.44;30.15;100980.06;5060227;28;46378;-56
2022/05/31 08:27:11;;;;;;;;;2.00;2.00;;;;;26.07;27.71;100973.03;5059172;28;45312;-56
2022/05/31 08:29:36;;;;;;;;;2.00;2.00;;;;;26.67;27.96;100969.88;5054172;28;45437;-56
2022/05/31 08:32:02;;;;;;;;;2.50;2.00;;;;;27.22;27.88;100968.03;5055157;28;58028;-56
2022/05/31 08:34:29;;;;;;;;;0.75;0.75;;;;;27.70;27.36;100967.81;5054918;28;47282;-55
2022/05/31 08:36:54;;;;;;;;;1.00;1.00;;;;;28.22;26.68;100975.16;5055637;28;45649;-56
2022/05/31 08:39:20;;;;;;;;;2.50;2.50;;;;;28.67;27.44;100974.28;5054064;28;45378;-55
2022/05/31 08:41:48;;;;;;;;;1.75;1.75;;;;;29.02;26.93;100977.16;5056039;28;47817;-57
2022/05/31 08:44:48;;;;;;;;;3.00;2.00;;;;;29.40;25.12;100973.34;5055176;28;46221;-57
2022/05/31 08:47:36;;;;;;;;;2.00;0.75;;;;;29.81;25.95;100976.22;5033628;28;45475;-56
2022/05/31 08:53:10;;;;;;;;;2.00;2.00;;;;;30.35;23.78;100968.34;5048292;28;45320;-57
2022/05/31 08:58:34;;;;;;;;;2.00;2.00;;;;;30.82;24.11;100977.63;5043919;28;45303;-56
2022/05/31 09:01:02;;;;;;;;;3.25;3.25;;;;;30.96;23.01;100972.16;5043417;28;45521;-57
2022/05/31 09:03:50;;;;;;;;;5.00;2.00;;;;;30.87;23.78;100974.25;5057430;28;45481;-57
2022/05/31 09:06:18;;;;;;;;;1.25;1.25;;;;;30.90;22.88;100971.13;5063152;28;45305;-57
2022/05/31 09:09:04;;;;;;;;;1.00;1.00;;;;;31.22;21.76;100976.06;5057272;28;45443;-57
2022/05/31 09:11:39;;;;;;;;;3.00;2.00;;;;;31.55;22.22;100978.81;5039645;28;45438;-56
2022/05/31 09:14:12;;;;;;;;;2.50;2.50;;;;;31.88;21.70;100974.38;5040497;28;45682;-56
2022/05/31 09:16:56;;;;;;;;;2.25;1.25;;;;;32.11;21.32;100973.88;5061315;28;47201;-57
2022/05/31 09:19:31;;;;;;;;;3.00;3.00;;;;;32.27;20.87;100975.38;5048386;28;45447;-56
2022/05/31 09:21:57;;;;;;;;;1.00;1.00;;;;;32.52;20.51;100980.16;5070600;28;45382;-56
2022/05/31 09:24:22;;;;;;;;;0.50;0.50;;;;;32.74;20.65;100986.22;5057162;28;45510;-55
2022/05/31 09:27:05;;;;;;;;;0.25;0.25;;;;;32.93;20.41;100981.66;5054244;28;46144;-57
2022/05/31 09:29:39;;;;;;;;;1.67;1.67;;;;;33.12;19.10;100983.44;5065456;28;45526;-56
2022/05/31 09:32:31;;;;;;;;;2.00;2.00;;;;;33.37;19.01;100982.63;5055574;28;45318;-55
2022/05/31 09:35:09;;;;;;;;;2.00;2.00;;;;;33.56;18.88;100982.69;5045364;28;45496;-56
2022/05/31 09:37:53;;;;;;;;;1.00;1.00;;;;;33.75;17.85;100980.84;5055334;28;46048;-56
2022/05/31 09:40:18;;;;;;;;;0.00;0.00;;;;;33.87;18.71;100975.44;5061499;28;45681;-57
2022/05/31 09:43:16;;;;;;;;;1.33;1.33;;;;;33.83;17.92;100986.06;5054002;28;45651;-56
2022/05/31 09:46:12;;;;;;;;;1.25;0.50;;;;;33.06;17.66;100977.97;5042253;28;45376;-55
2022/05/31 09:48:44;;;;;;;;;2.25;2.25;;;;;32.68;18.04;100978.81;5059550;28;46618;-55
2022/05/31 09:51:25;;;;;;;;;0.50;0.50;;;;;32.61;17.97;100973.34;5054738;28;45395;-56
2022/05/31 09:59:25;;;;;;;;;1.00;1.00;;;;;33.14;17.46;100967.53;5053639;28;45390;-54
2022/05/31 10:01:51;;;;;;;;;1.00;1.00;;;;;33.43;18.53;100969.91;5053072;28;45380;-54
2022/05/31 10:04:34;;;;;;;;;1.50;1.00;;;;;33.33;17.44;100969.56;5046964;28;45354;-55
2022/05/31 10:07:03;;;;;;;;;2.00;2.00;;;;;32.86;18.21;100967.09;5052242;28;63640;-56
2022/05/31 10:09:33;;;;;;;;;1.00;1.00;;;;;32.17;18.67;100973.91;5046112;28;47257;-54
2022/05/31 10:12:21;;;;;;;;;2.75;1.50;;;;;31.31;18.46;100975.63;5061859;28;45388;-55
2022/05/31 10:14:49;;;;;;;;;1.50;1.50;;;;;30.58;19.20;100978.19;5057986;28;45342;-53
2022/05/31 10:17:36;;;;;;;;;1.75;0.00;;;;;29.88;18.76;100981.75;5032954;28;45477;-54
2022/05/31 10:20:19;;;;;;;;;1.25;1.25;;;;;29.24;18.57;100985.41;5056787;28;45435;-54
2022/05/31 10:22:53;;;;;;;;;0.00;0.00;;;;;28.67;19.58;100982.50;5042831;28;45296;-53
2022/05/31 10:25:24;;;;;;;;;1.00;1.00;;;;;28.19;20.03;100978.25;5064996;28;45630;-55
2022/05/31 10:27:56;;;;;;;;;1.00;1.00;;;;;27.76;20.57;100980.75;5056357;28;45331;-55
2022/05/31 10:30:22;;;;;;;;;2.00;1.00;;;;;27.46;20.84;100985.28;5044115;28;46403;-55
2022/05/31 10:32:54;;;;;;;;;2.00;2.00;;;;;27.65;20.80;100970.25;5066562;28;45285;-54
2022/05/31 10:35:29;;;;;;;;;1.75;1.75;;;;;28.10;20.24;100971.19;5046240;28;45451;-55
2022/05/31 10:38:05;;;;;;;;;2.00;2.00;;;;;28.65;20.54;100970.84;5045330;28;45414;-55
2022/05/31 10:40:35;;;;;;;;;1.75;1.00;;;;;29.07;20.12;100980.19;5055795;28;46092;-55
2022/05/31 10:43:30;;;;;;;;;1.75;1.75;;;;;29.56;19.94;100967.59;5056846;28;45508;-53
2022/05/31 10:45:56;;;;;;;;;1.00;1.00;;;;;29.98;18.74;100973.19;5058285;28;45571;-54
2022/05/31 10:48:22;;;;;;;;;0.00;0.00;;;;;30.28;18.86;100962.81;5063012;28;45279;-51
2022/05/31 10:50:54;;;;;;;;;1.50;1.50;;;;;30.62;19.13;100976.72;5063390;28;46000;-55
2022/05/31 10:53:41;;;;;;;;;0.00;0.00;;;;;30.97;19.62;100966.47;5058180;28;46779;-55
2022/05/31 10:56:21;;;;;;;;;1.50;1.00;;;;;31.29;18.02;100971.41;5041708;28;45523;-55
2022/05/31 10:59:01;;;;;;;;;1.00;1.00;;;;;31.51;17.88;100978.41;5067309;28;45392;-56
2022/05/31 11:01:49;;;;;;;;;2.75;2.75;;;;;31.75;17.51;100972.50;5062716;28;45439;-53
2022/05/31 11:04:34;;;;;;;;;0.00;0.00;;;;;31.84;16.85;100966.53;5056003;28;45730;-53
2022/05/31 11:07:18;;;;;;;;;1.00;0.00;;;;;31.78;15.60;100961.06;5028946;28;45359;-53
2022/05/31 11:12:37;;;;;;;;;2.75;1.00;;;;;31.00;17.05;100970.69;5060936;28;45395;-55
2022/05/31 11:15:16;;;;;;;;;0.50;0.50;;;;;30.67;17.72;100972.28;5054272;28;45350;-56
2022/05/31 11:18:32;;;;;;;;;0.75;0.75;;;;;30.41;18.11;100973.00;5060629;28;45329;-51
2022/05/31 11:21:30;;;;;;;;;1.00;1.00;;;;;30.00;18.52;100984.81;4973882;28;45624;-51
2022/05/31 11:24:01;;;;;;;;;4.50;3.00;;;;;29.47;18.73;100974.28;5074133;27;46214;-55
2022/05/31 11:26:42;;;;;;;;;2.75;1.25;;;;;28.92;18.84;100972.03;5067895;28;45508;-53
2022/05/31 11:29:29;;;;;;;;;0.25;0.25;;;;;28.43;19.80;100978.97;5041982;28;45342;-54
2022/05/31 11:32:17;;;;;;;;;1.25;1.25;;;;;28.04;19.52;100978.25;5058582;28;45336;-55
2022/05/31 11:35:10;;;;;;;;;2.25;1.50;;;;;27.66;20.10;100977.41;5042187;28;45522;-54
2022/05/31 11:38:02;;;;;;;;;1.00;1.00;;;;;27.29;19.71;100976.34;5061468;28;45400;-55
2022/05/31 11:40:50;;;;;;;;;0.00;0.00;;;;;27.11;20.18;100980.22;5034111;28;45406;-54
2022/05/31 11:43:55;;;;;;;;;1.25;1.25;;;;;27.12;19.62;100983.78;5047190;28;45513;-54
2022/05/31 11:46:38;;;;;;;;;1.00;0.00;;;;;27.12;20.08;100979.19;5059274;28;47343;-53
2022/05/31 11:49:08;;;;;;;;;1.33;1.33;;;;;27.15;19.72;100972.53;5058405;28;45517;-53
2022/05/31 11:51:53;;;;;;;;;4.00;3.00;;;;;27.21;20.19;100985.47;5057859;28;45435;-50
2022/05/31 11:54:41;;;;;;;;;4.00;1.50;;;;;27.29;19.93;100977.19;5059264;28;45250;-54
2022/05/31 11:57:23;;;;;;;;;1.00;1.00;;;;;27.39;20.00;100976.97;5058810;28;47060;-52
2022/05/31 11:59:56;;;;;;;;;2.00;1.00;;;;;27.41;20.33;100972.19;5052426;28;45344;-53
2022/05/31 12:02:38;;;;;;;;;0.00;0.00;;;;;27.42;20.52;100970.28;5051328;28;45544;-51
2022/05/31 12:05:25;;;;;;;;;1.00;1.00;;;;;27.38;19.94;100975.28;5052645;28;45429;-53
2022/05/31 12:07:59;;;;;;;;;3.00;1.33;;;;;27.21;20.53;100977.28;5063309;28;46144;-52